CheckWX is a tool to help pilots better visualize weather data.  It is not intended as a substitute for an official pre-flight weather briefing.

16:06:52 UTC

EGLL METAR
London Heathrow Airport
London, United Kingdom
Current

17 mins ago

EGLL 111550Z AUTO 22010KT 9999 BKN034 07/05 Q1001
Observed
Dec-11 @ 15:50 UTC
Wind
  • 220° at 10 KTS
Visibility
10,000+ meters
Flight Rules
VFR
Cloud Levels
  • Broken at 3,400' AGL
Temperature
C / 45°F
Dewpoint
C / 41°F
Humidity
87%
Altimeter
29.56" Hg
Pressure
1000.92 hPa
Previous

47 mins ago

EGLL 111520Z AUTO 22010KT 170V250 9999 BKN023 BKN031 07/05 Q1001
Observed
Dec-11 @ 15:20 UTC
Wind
  • 220° at 10 KTS
Visibility
10,000+ meters
Flight Rules
MVFR
Cloud Levels
  • Broken at 2,300' AGL
  • Broken at 3,100' AGL
Temperature
C / 45°F
Dewpoint
C / 41°F
Humidity
87%
Altimeter
29.56" Hg
Pressure
1000.92 hPa
Previous

1 hour ago

EGLL 111450Z AUTO 20008KT 170V260 9999 BKN037 07/05 Q1001
Observed
Dec-11 @ 14:50 UTC
Wind
  • 200° at 8 KTS
Visibility
10,000+ meters
Flight Rules
VFR
Cloud Levels
  • Broken at 3,700' AGL
Temperature
C / 45°F
Dewpoint
C / 41°F
Humidity
87%
Altimeter
29.56" Hg
Pressure
1000.92 hPa